sensor_id;sensor_type;location;lat;lon;timestamp;P1;durP1;ratioP1;P2;durP2;ratioP2
14890;SDS011;7537;48.014;11.590;2023-03-01T00:00:44;21.28;;;16.48;;
14890;SDS011;7537;48.014;11.590;2023-03-01T00:06:19;21.93;;;16.67;;
14890;SDS011;7537;48.014;11.590;2023-03-01T00:11:50;26.68;;;16.34;;
14890;SDS011;7537;48.014;11.590;2023-03-01T00:17:18;24.23;;;17.09;;
14890;SDS011;7537;48.014;11.590;2023-03-01T00:22:47;26.21;;;18.54;;
14890;SDS011;7537;48.014;11.590;2023-03-01T00:28:15;22.89;;;16.89;;
14890;SDS011;7537;48.014;11.590;2023-03-01T00:33:42;25.02;;;16.74;;
14890;SDS011;7537;48.014;11.590;2023-03-01T00:39:13;21.24;;;16.47;;
14890;SDS011;7537;48.014;11.590;2023-03-01T00:44:40;22.35;;;16.84;;
14890;SDS011;7537;48.014;11.590;2023-03-01T00:50:09;24.64;;;16.62;;
14890;SDS011;7537;48.014;11.590;2023-03-01T00:55:37;21.40;;;15.09;;
14890;SDS011;7537;48.014;11.590;2023-03-01T01:01:08;23.37;;;17.21;;
14890;SDS011;7537;48.014;11.590;2023-03-01T01:06:36;21.51;;;16.30;;
14890;SDS011;7537;48.014;11.590;2023-03-01T01:12:07;23.78;;;16.11;;
14890;SDS011;7537;48.014;11.590;2023-03-01T01:17:34;23.81;;;18.69;;
14890;SDS011;7537;48.014;11.590;2023-03-01T01:23:01;24.89;;;17.97;;
14890;SDS011;7537;48.014;11.590;2023-03-01T01:28:29;26.68;;;19.09;;
14890;SDS011;7537;48.014;11.590;2023-03-01T01:33:56;23.68;;;16.92;;
14890;SDS011;7537;48.014;11.590;2023-03-01T01:39:24;26.44;;;18.25;;
14890;SDS011;7537;48.014;11.590;2023-03-01T01:50:38;26.14;;;17.40;;
14890;SDS011;7537;48.014;11.590;2023-03-01T01:56:06;22.81;;;17.24;;
14890;SDS011;7537;48.014;11.590;2023-03-01T02:01:34;23.54;;;17.51;;
14890;SDS011;7537;48.014;11.590;2023-03-01T02:07:02;24.07;;;17.54;;
14890;SDS011;7537;48.014;11.590;2023-03-01T02:12:34;21.88;;;16.58;;
14890;SDS011;7537;48.014;11.590;2023-03-01T02:18:05;26.14;;;17.65;;
14890;SDS011;7537;48.014;11.590;2023-03-01T02:23:33;25.62;;;17.48;;
14890;SDS011;7537;48.014;11.590;2023-03-01T02:29:01;23.03;;;13.51;;
14890;SDS011;7537;48.014;11.590;2023-03-01T02:34:28;24.46;;;17.89;;
14890;SDS011;7537;48.014;11.590;2023-03-01T02:39:58;24.37;;;16.66;;
14890;SDS011;7537;48.014;11.590;2023-03-01T02:45:26;21.68;;;17.73;;
14890;SDS011;7537;48.014;11.590;2023-03-01T02:50:57;25.21;;;16.77;;
14890;SDS011;7537;48.014;11.590;2023-03-01T02:56:30;21.47;;;17.46;;
14890;SDS011;7537;48.014;11.590;2023-03-01T03:01:57;23.94;;;18.50;;
14890;SDS011;7537;48.014;11.590;2023-03-01T03:07:24;25.70;;;17.72;;
14890;SDS011;7537;48.014;11.590;2023-03-01T03:12:55;19.32;;;14.55;;
14890;SDS011;7537;48.014;11.590;2023-03-01T03:18:26;27.06;;;18.09;;
14890;SDS011;7537;48.014;11.590;2023-03-01T03:23:53;23.49;;;18.18;;
14890;SDS011;7537;48.014;11.590;2023-03-01T03:29:20;22.88;;;18.68;;
14890;SDS011;7537;48.014;11.590;2023-03-01T03:34:48;22.76;;;16.64;;
14890;SDS011;7537;48.014;11.590;2023-03-01T03:40:15;21.93;;;16.56;;
14890;SDS011;7537;48.014;11.590;2023-03-01T03:45:43;21.61;;;17.00;;
14890;SDS011;7537;48.014;11.590;2023-03-01T03:51:11;18.46;;;14.12;;
14890;SDS011;7537;48.014;11.590;2023-03-01T03:56:39;23.09;;;18.47;;
14890;SDS011;7537;48.014;11.590;2023-03-01T04:02:06;27.09;;;17.41;;
14890;SDS011;7537;48.014;11.590;2023-03-01T04:07:33;22.60;;;17.80;;
14890;SDS011;7537;48.014;11.590;2023-03-01T04:13:04;26.17;;;19.41;;
14890;SDS011;7537;48.014;11.590;2023-03-01T04:18:31;18.87;;;13.40;;
14890;SDS011;7537;48.014;11.590;2023-03-01T04:23:59;19.98;;;15.12;;
14890;SDS011;7537;48.014;11.590;2023-03-01T04:29:26;17.58;;;13.09;;
14890;SDS011;7537;48.014;11.590;2023-03-01T04:34:53;28.02;;;17.16;;
14890;SDS011;7537;48.014;11.590;2023-03-01T04:40:21;25.26;;;17.03;;
14890;SDS011;7537;48.014;11.590;2023-03-01T04:45:49;24.39;;;17.92;;
14890;SDS011;7537;48.014;11.590;2023-03-01T04:51:17;22.26;;;16.08;;
14890;SDS011;7537;48.014;11.590;2023-03-01T04:56:44;21.16;;;15.07;;
14890;SDS011;7537;48.014;11.590;2023-03-01T05:02:12;21.23;;;13.24;;
14890;SDS011;7537;48.014;11.590;2023-03-01T05:07:39;22.84;;;16.91;;
14890;SDS011;7537;48.014;11.590;2023-03-01T05:13:10;26.82;;;15.63;;
14890;SDS011;7537;48.014;11.590;2023-03-01T05:18:38;21.08;;;17.06;;
14890;SDS011;7537;48.014;11.590;2023-03-01T05:24:06;25.73;;;18.92;;
14890;SDS011;7537;48.014;11.590;2023-03-01T05:29:34;17.68;;;11.69;;
14890;SDS011;7537;48.014;11.590;2023-03-01T05:35:02;23.48;;;13.26;;
14890;SDS011;7537;48.014;11.590;2023-03-01T05:40:29;24.64;;;18.42;;
14890;SDS011;7537;48.014;11.590;2023-03-01T05:45:57;26.99;;;19.62;;
14890;SDS011;7537;48.014;11.590;2023-03-01T05:51:24;23.16;;;17.03;;
14890;SDS011;7537;48.014;11.590;2023-03-01T05:56:51;20.11;;;15.96;;
14890;SDS011;7537;48.014;11.590;2023-03-01T06:02:19;24.79;;;19.16;;
14890;SDS011;7537;48.014;11.590;2023-03-01T06:07:46;23.47;;;18.87;;
14890;SDS011;7537;48.014;11.590;2023-03-01T06:13:17;24.05;;;16.84;;
14890;SDS011;7537;48.014;11.590;2023-03-01T06:18:44;35.02;;;18.66;;
14890;SDS011;7537;48.014;11.590;2023-03-01T06:24:11;20.15;;;14.57;;
14890;SDS011;7537;48.014;11.590;2023-03-01T06:29:39;25.59;;;19.13;;
14890;SDS011;7537;48.014;11.590;2023-03-01T06:35:07;24.46;;;19.51;;
14890;SDS011;7537;48.014;11.590;2023-03-01T06:40:35;23.74;;;18.92;;
14890;SDS011;7537;48.014;11.590;2023-03-01T06:46:09;27.96;;;20.21;;
14890;SDS011;7537;48.014;11.590;2023-03-01T06:51:36;27.61;;;20.57;;
14890;SDS011;7537;48.014;11.590;2023-03-01T06:57:04;28.87;;;21.44;;
14890;SDS011;7537;48.014;11.590;2023-03-01T07:02:31;29.78;;;20.86;;
14890;SDS011;7537;48.014;11.590;2023-03-01T07:07:59;29.60;;;20.46;;
14890;SDS011;7537;48.014;11.590;2023-03-01T07:13:29;25.07;;;19.17;;
14890;SDS011;7537;48.014;11.590;2023-03-01T07:18:57;17.28;;;12.66;;
14890;SDS011;7537;48.014;11.590;2023-03-01T07:24:25;30.15;;;21.11;;
14890;SDS011;7537;48.014;11.590;2023-03-01T07:29:52;29.97;;;20.03;;
14890;SDS011;7537;48.014;11.590;2023-03-01T07:35:20;25.45;;;18.68;;
14890;SDS011;7537;48.014;11.590;2023-03-01T07:40:47;26.03;;;17.15;;
14890;SDS011;7537;48.014;11.590;2023-03-01T07:46:15;28.26;;;20.96;;
14890;SDS011;7537;48.014;11.590;2023-03-01T07:51:43;24.83;;;16.44;;
14890;SDS011;7537;48.014;11.590;2023-03-01T07:57:11;25.88;;;15.82;;
14890;SDS011;7537;48.014;11.590;2023-03-01T08:02:39;31.55;;;19.14;;
14890;SDS011;7537;48.014;11.590;2023-03-01T08:08:06;24.97;;;19.06;;
14890;SDS011;7537;48.014;11.590;2023-03-01T08:13:43;24.12;;;17.75;;
14890;SDS011;7537;48.014;11.590;2023-03-01T08:19:11;30.71;;;19.62;;
14890;SDS011;7537;48.014;11.590;2023-03-01T08:24:39;29.52;;;21.44;;
14890;SDS011;7537;48.014;11.590;2023-03-01T08:30:08;26.87;;;19.49;;
14890;SDS011;7537;48.014;11.590;2023-03-01T08:35:36;26.83;;;19.24;;
14890;SDS011;7537;48.014;11.590;2023-03-01T08:41:04;26.99;;;20.44;;
14890;SDS011;7537;48.014;11.590;2023-03-01T08:46:32;27.53;;;20.32;;
14890;SDS011;7537;48.014;11.590;2023-03-01T08:52:01;30.89;;;20.58;;
14890;SDS011;7537;48.014;11.590;2023-03-01T08:57:29;27.62;;;17.98;;
14890;SDS011;7537;48.014;11.590;2023-03-01T09:02:57;30.07;;;20.34;;
14890;SDS011;7537;48.014;11.590;2023-03-01T09:08:27;22.09;;;13.43;;
14890;SDS011;7537;48.014;11.590;2023-03-01T09:13:58;28.55;;;18.24;;
14890;SDS011;7537;48.014;11.590;2023-03-01T09:19:26;28.03;;;20.26;;
14890;SDS011;7537;48.014;11.590;2023-03-01T09:24:59;26.35;;;18.41;;
14890;SDS011;7537;48.014;11.590;2023-03-01T09:30:31;24.83;;;19.66;;
14890;SDS011;7537;48.014;11.590;2023-03-01T09:35:58;31.78;;;21.08;;
14890;SDS011;7537;48.014;11.590;2023-03-01T09:47:17;21.34;;;14.71;;
14890;SDS011;7537;48.014;11.590;2023-03-01T09:52:46;29.14;;;20.04;;
14890;SDS011;7537;48.014;11.590;2023-03-01T10:04:12;26.56;;;17.55;;
14890;SDS011;7537;48.014;11.590;2023-03-01T10:09:46;31.43;;;20.50;;
14890;SDS011;7537;48.014;11.590;2023-03-01T10:15:18;27.79;;;20.32;;
14890;SDS011;7537;48.014;11.590;2023-03-01T10:20:48;32.18;;;19.00;;
14890;SDS011;7537;48.014;11.590;2023-03-01T10:26:22;26.96;;;19.83;;
14890;SDS011;7537;48.014;11.590;2023-03-01T10:31:52;28.63;;;20.07;;
14890;SDS011;7537;48.014;11.590;2023-03-01T10:37:21;27.22;;;17.86;;
14890;SDS011;7537;48.014;11.590;2023-03-01T10:42:49;26.81;;;18.89;;
14890;SDS011;7537;48.014;11.590;2023-03-01T10:48:18;29.03;;;20.76;;
14890;SDS011;7537;48.014;11.590;2023-03-01T10:53:47;31.32;;;20.61;;
14890;SDS011;7537;48.014;11.590;2023-03-01T10:59:27;28.64;;;20.20;;
14890;SDS011;7537;48.014;11.590;2023-03-01T11:04:58;22.42;;;15.91;;
14890;SDS011;7537;48.014;11.590;2023-03-01T11:10:33;26.04;;;17.60;;
14890;SDS011;7537;48.014;11.590;2023-03-01T11:16:05;33.02;;;21.12;;
14890;SDS011;7537;48.014;11.590;2023-03-01T11:21:33;30.28;;;21.46;;
14890;SDS011;7537;48.014;11.590;2023-03-01T11:27:03;27.92;;;20.57;;
14890;SDS011;7537;48.014;11.590;2023-03-01T11:32:31;23.54;;;17.83;;
14890;SDS011;7537;48.014;11.590;2023-03-01T11:38:04;19.50;;;15.67;;
14890;SDS011;7537;48.014;11.590;2023-03-01T11:43:37;17.65;;;13.83;;
14890;SDS011;7537;48.014;11.590;2023-03-01T11:55:24;25.98;;;18.81;;
14890;SDS011;7537;48.014;11.590;2023-03-01T12:06:51;22.66;;;14.17;;
14890;SDS011;7537;48.014;11.590;2023-03-01T12:12:32;29.61;;;17.87;;
14890;SDS011;7537;48.014;11.590;2023-03-01T12:18:12;21.70;;;16.70;;
14890;SDS011;7537;48.014;11.590;2023-03-01T12:23:51;24.07;;;18.06;;
14890;SDS011;7537;48.014;11.590;2023-03-01T12:29:25;19.46;;;16.44;;
14890;SDS011;7537;48.014;11.590;2023-03-01T12:40:46;19.33;;;15.08;;
14890;SDS011;7537;48.014;11.590;2023-03-01T12:46:27;23.01;;;17.96;;
14890;SDS011;7537;48.014;11.590;2023-03-01T12:51:58;26.09;;;18.16;;
14890;SDS011;7537;48.014;11.590;2023-03-01T12:57:27;23.24;;;18.37;;
14890;SDS011;7537;48.014;11.590;2023-03-01T13:02:56;20.83;;;17.89;;
14890;SDS011;7537;48.014;11.590;2023-03-01T13:08:29;21.99;;;17.89;;
14890;SDS011;7537;48.014;11.590;2023-03-01T13:19:56;23.61;;;18.04;;
14890;SDS011;7537;48.014;11.590;2023-03-01T13:25:23;22.87;;;19.00;;
14890;SDS011;7537;48.014;11.590;2023-03-01T13:30:51;24.48;;;16.24;;
14890;SDS011;7537;48.014;11.590;2023-03-01T13:42:03;23.71;;;18.44;;
14890;SDS011;7537;48.014;11.590;2023-03-01T13:47:31;23.69;;;19.44;;
14890;SDS011;7537;48.014;11.590;2023-03-01T13:53:02;27.58;;;21.93;;
14890;SDS011;7537;48.014;11.590;2023-03-01T13:58:30;23.24;;;18.88;;
14890;SDS011;7537;48.014;11.590;2023-03-01T14:03:58;23.11;;;17.91;;
14890;SDS011;7537;48.014;11.590;2023-03-01T14:09:26;25.71;;;19.82;;
14890;SDS011;7537;48.014;11.590;2023-03-01T14:14:56;27.53;;;20.47;;
14890;SDS011;7537;48.014;11.590;2023-03-01T14:20:30;25.21;;;18.80;;
14890;SDS011;7537;48.014;11.590;2023-03-01T14:25:58;24.69;;;19.35;;
14890;SDS011;7537;48.014;11.590;2023-03-01T14:31:34;27.29;;;19.28;;
14890;SDS011;7537;48.014;11.590;2023-03-01T14:37:14;27.36;;;19.88;;
14890;SDS011;7537;48.014;11.590;2023-03-01T14:42:44;26.17;;;21.12;;
14890;SDS011;7537;48.014;11.590;2023-03-01T14:48:12;29.90;;;22.42;;
14890;SDS011;7537;48.014;11.590;2023-03-01T14:53:39;28.38;;;22.22;;
14890;SDS011;7537;48.014;11.590;2023-03-01T14:59:09;27.85;;;22.49;;
14890;SDS011;7537;48.014;11.590;2023-03-01T15:04:36;31.47;;;22.05;;
14890;SDS011;7537;48.014;11.590;2023-03-01T15:10:05;25.49;;;20.56;;
14890;SDS011;7537;48.014;11.590;2023-03-01T15:15:36;28.34;;;20.89;;
14890;SDS011;7537;48.014;11.590;2023-03-01T15:21:09;29.63;;;22.06;;
14890;SDS011;7537;48.014;11.590;2023-03-01T15:26:45;28.71;;;22.25;;
14890;SDS011;7537;48.014;11.590;2023-03-01T15:32:24;27.38;;;20.24;;
14890;SDS011;7537;48.014;11.590;2023-03-01T15:37:51;31.78;;;20.97;;
14890;SDS011;7537;48.014;11.590;2023-03-01T15:43:37;27.45;;;21.49;;
14890;SDS011;7537;48.014;11.590;2023-03-01T15:49:05;28.82;;;21.31;;
14890;SDS011;7537;48.014;11.590;2023-03-01T15:54:47;31.02;;;22.65;;
14890;SDS011;7537;48.014;11.590;2023-03-01T16:00:15;30.28;;;23.03;;
14890;SDS011;7537;48.014;11.590;2023-03-01T16:05:43;29.17;;;22.06;;
14890;SDS011;7537;48.014;11.590;2023-03-01T16:11:13;29.83;;;23.66;;
14890;SDS011;7537;48.014;11.590;2023-03-01T16:16:41;30.97;;;23.12;;
14890;SDS011;7537;48.014;11.590;2023-03-01T16:22:12;31.07;;;23.43;;
14890;SDS011;7537;48.014;11.590;2023-03-01T16:27:42;38.11;;;25.73;;
14890;SDS011;7537;48.014;11.590;2023-03-01T16:33:10;47.83;;;28.37;;
14890;SDS011;7537;48.014;11.590;2023-03-01T16:38:37;32.03;;;23.15;;
14890;SDS011;7537;48.014;11.590;2023-03-01T16:44:05;28.62;;;22.03;;
14890;SDS011;7537;48.014;11.590;2023-03-01T16:49:32;33.04;;;22.14;;
14890;SDS011;7537;48.014;11.590;2023-03-01T16:54:59;28.67;;;22.38;;
14890;SDS011;7537;48.014;11.590;2023-03-01T17:00:27;29.72;;;21.44;;
14890;SDS011;7537;48.014;11.590;2023-03-01T17:06:01;29.98;;;23.12;;
14890;SDS011;7537;48.014;11.590;2023-03-01T17:11:30;33.51;;;21.67;;
14890;SDS011;7537;48.014;11.590;2023-03-01T17:16:57;34.98;;;23.74;;
14890;SDS011;7537;48.014;11.590;2023-03-01T17:22:28;36.38;;;22.68;;
14890;SDS011;7537;48.014;11.590;2023-03-01T17:27:55;33.52;;;22.08;;
14890;SDS011;7537;48.014;11.590;2023-03-01T17:33:22;31.73;;;20.39;;
14890;SDS011;7537;48.014;11.590;2023-03-01T17:38:50;31.71;;;21.61;;
14890;SDS011;7537;48.014;11.590;2023-03-01T17:44:17;30.99;;;21.74;;
14890;SDS011;7537;48.014;11.590;2023-03-01T17:49:45;33.22;;;22.54;;
14890;SDS011;7537;48.014;11.590;2023-03-01T17:55:12;34.29;;;22.79;;
14890;SDS011;7537;48.014;11.590;2023-03-01T18:00:39;34.25;;;23.72;;
14890;SDS011;7537;48.014;11.590;2023-03-01T18:06:11;33.23;;;22.92;;
14890;SDS011;7537;48.014;11.590;2023-03-01T18:11:40;32.32;;;22.77;;
14890;SDS011;7537;48.014;11.590;2023-03-01T18:17:08;36.31;;;23.09;;
14890;SDS011;7537;48.014;11.590;2023-03-01T18:22:53;37.74;;;25.62;;
14890;SDS011;7537;48.014;11.590;2023-03-01T18:28:21;39.15;;;25.00;;
14890;SDS011;7537;48.014;11.590;2023-03-01T18:33:48;42.15;;;27.30;;
14890;SDS011;7537;48.014;11.590;2023-03-01T18:39:17;48.96;;;32.39;;
14890;SDS011;7537;48.014;11.590;2023-03-01T18:44:44;43.44;;;29.36;;
14890;SDS011;7537;48.014;11.590;2023-03-01T18:50:11;37.91;;;25.58;;
14890;SDS011;7537;48.014;11.590;2023-03-01T18:55:39;44.31;;;29.57;;
14890;SDS011;7537;48.014;11.590;2023-03-01T19:01:10;38.28;;;26.13;;
14890;SDS011;7537;48.014;11.590;2023-03-01T19:06:38;39.22;;;28.26;;
14890;SDS011;7537;48.014;11.590;2023-03-01T19:12:05;36.26;;;24.59;;
14890;SDS011;7537;48.014;11.590;2023-03-01T19:17:33;40.39;;;24.41;;
14890;SDS011;7537;48.014;11.590;2023-03-01T19:23:04;46.24;;;27.70;;
14890;SDS011;7537;48.014;11.590;2023-03-01T19:28:31;36.51;;;25.22;;
14890;SDS011;7537;48.014;11.590;2023-03-01T19:33:59;37.78;;;25.20;;
14890;SDS011;7537;48.014;11.590;2023-03-01T19:39:26;37.14;;;24.62;;
14890;SDS011;7537;48.014;11.590;2023-03-01T19:44:54;37.18;;;24.53;;
14890;SDS011;7537;48.014;11.590;2023-03-01T19:50:21;42.26;;;24.86;;
14890;SDS011;7537;48.014;11.590;2023-03-01T19:55:55;38.92;;;26.44;;
14890;SDS011;7537;48.014;11.590;2023-03-01T20:01:22;39.19;;;26.78;;
14890;SDS011;7537;48.014;11.590;2023-03-01T20:06:50;42.31;;;27.07;;
14890;SDS011;7537;48.014;11.590;2023-03-01T20:12:20;37.17;;;24.83;;
14890;SDS011;7537;48.014;11.590;2023-03-01T20:17:47;42.19;;;26.02;;
14890;SDS011;7537;48.014;11.590;2023-03-01T20:23:23;51.19;;;31.04;;
14890;SDS011;7537;48.014;11.590;2023-03-01T20:28:52;42.30;;;28.69;;
14890;SDS011;7537;48.014;11.590;2023-03-01T20:34:20;46.37;;;28.95;;
14890;SDS011;7537;48.014;11.590;2023-03-01T20:39:53;51.66;;;31.21;;
14890;SDS011;7537;48.014;11.590;2023-03-01T20:45:20;40.76;;;25.74;;
14890;SDS011;7537;48.014;11.590;2023-03-01T20:50:48;40.27;;;27.67;;
14890;SDS011;7537;48.014;11.590;2023-03-01T20:56:15;42.15;;;28.34;;
14890;SDS011;7537;48.014;11.590;2023-03-01T21:01:43;41.63;;;26.71;;
14890;SDS011;7537;48.014;11.590;2023-03-01T21:07:10;40.89;;;27.30;;
14890;SDS011;7537;48.014;11.590;2023-03-01T21:12:38;37.67;;;24.23;;
14890;SDS011;7537;48.014;11.590;2023-03-01T21:18:05;40.08;;;24.92;;
14890;SDS011;7537;48.014;11.590;2023-03-01T21:23:37;40.49;;;24.70;;
14890;SDS011;7537;48.014;11.590;2023-03-01T21:29:04;39.15;;;25.77;;
14890;SDS011;7537;48.014;11.590;2023-03-01T21:34:32;46.89;;;28.51;;
14890;SDS011;7537;48.014;11.590;2023-03-01T21:39:59;43.10;;;27.83;;
14890;SDS011;7537;48.014;11.590;2023-03-01T21:45:26;39.09;;;24.97;;
14890;SDS011;7537;48.014;11.590;2023-03-01T21:50:54;37.81;;;24.79;;
14890;SDS011;7537;48.014;11.590;2023-03-01T21:56:22;44.66;;;27.23;;
14890;SDS011;7537;48.014;11.590;2023-03-01T22:01:50;36.60;;;24.85;;
14890;SDS011;7537;48.014;11.590;2023-03-01T22:07:18;37.10;;;24.28;;
14890;SDS011;7537;48.014;11.590;2023-03-01T22:12:45;35.72;;;22.87;;
14890;SDS011;7537;48.014;11.590;2023-03-01T22:18:15;41.05;;;26.09;;
14890;SDS011;7537;48.014;11.590;2023-03-01T22:23:45;38.20;;;23.58;;
14890;SDS011;7537;48.014;11.590;2023-03-01T22:29:14;41.89;;;24.49;;
14890;SDS011;7537;48.014;11.590;2023-03-01T22:34:42;34.67;;;23.69;;
14890;SDS011;7537;48.014;11.590;2023-03-01T22:40:10;37.59;;;25.86;;
14890;SDS011;7537;48.014;11.590;2023-03-01T22:45:37;35.61;;;25.08;;
14890;SDS011;7537;48.014;11.590;2023-03-01T22:51:05;39.14;;;24.97;;
14890;SDS011;7537;48.014;11.590;2023-03-01T22:56:33;45.57;;;28.28;;
14890;SDS011;7537;48.014;11.590;2023-03-01T23:02:01;41.81;;;26.35;;
14890;SDS011;7537;48.014;11.590;2023-03-01T23:07:30;38.63;;;26.56;;
14890;SDS011;7537;48.014;11.590;2023-03-01T23:12:57;36.98;;;24.79;;
14890;SDS011;7537;48.014;11.590;2023-03-01T23:18:24;38.42;;;25.58;;
14890;SDS011;7537;48.014;11.590;2023-03-01T23:23:55;39.54;;;26.67;;
14890;SDS011;7537;48.014;11.590;2023-03-01T23:29:23;37.67;;;26.32;;
14890;SDS011;7537;48.014;11.590;2023-03-01T23:34:50;43.00;;;26.71;;
14890;SDS011;7537;48.014;11.590;2023-03-01T23:40:25;40.53;;;25.86;;
14890;SDS011;7537;48.014;11.590;2023-03-01T23:45:52;35.81;;;23.62;;
14890;SDS011;7537;48.014;11.590;2023-03-01T23:51:20;38.11;;;25.51;;
14890;SDS011;7537;48.014;11.590;2023-03-01T23:56:47;38.03;;;25.84;;
